Ercan, Cyprus

7:44 PM EEST on July 26, 2014 (GMT +0300)
Ercan (LCEN) Elev 299 ft | 35.15 °N, 33.50 °E | Change Station

Current weather conditions updated 24 minutes ago

Scattered Clouds
Scattered Clouds
82 °F
Feels Like 85 °F
N
15
Wind Variable Wind from North

Tomorrow is forecast to be Warmer than today.

Today
High -- | Low -- °F
--% Chance of Precip.
Yesterday
High -- | Low -- °F
Precip. -- in
5:50 AM 7:54 PM
Waning Crescent, 0% visible
Pressure 29.71 in
Visibility 6.2 miles
Clouds Scattered Clouds 2500 ft
Scattered Clouds 3000 ft
Heat Index 85 °F
Dew Point 68 °F
Humidity 62%
Rainfall 0.00 in
Snow Depth Not available.
UV 0 out of 12
Pollen Not available.
Air Quality Not available.
Flu Activity Not available.
METAR LCEN 261620Z 35013KT 9999 SCT025 SCT030 28/20 Q1006 NOSIG RMK RWY11 36013KT

More Conditions Fewer Conditions

Pressure 29.71 in
Visibility 6.2 miles
Clouds Scattered Clouds 2500 ft
Scattered Clouds 3000 ft
Heat Index 85 °F
Dew Point 68 °F
Humidity 62%
Rainfall 0.00 in
Snow Depth Not available.
UV 0 out of 12
Pollen Not available.
Air Quality Not available.
Flu Activity Not available.
METAR LCEN 261620Z 35013KT 9999 SCT025 SCT030 28/20 Q1006 NOSIG RMK RWY11 36013KT

More Conditions Fewer Conditions

10-Day Weather Forecast

Almanac

Astronomy

Jul. 26, 2014 Rise Set
Actual Time 5:50 AM EEST 7:54 PM EEST
Civil Twilight 5:22 AM EEST 8:22 PM EEST
Nautical Twilight 4:47 AM EEST 8:56 PM EEST
Astronomical Twilight 4:10 AM EEST 9:33 PM EEST
Moon 5:22 AM EEST 7:19 PM EEST
Length of Visible Light 15h 00m
Length of Day
14h 03m
Tomorrow will be 1m 29s shorter.
Waning Crescent, 0% of the Moon is Illuminated
Today
Waning Crescent
Jul 26
New
Aug 3
First Quarter
Aug 10
Full
Aug 17
Last Quarter

Today's Extremes

Country Highs Country Lows

Community

WunderPhotos

Upload Photos

1,737,629 photos uploaded!

Nearby

Snow Depth

Not available.

Earthquake Activity

City Distance Mag. Time & Date
No recent earthquake activity has been reported nearby.
Minimum magnitude displayed is 2.5.

Coastal Water Temperatures

Place Temperature
No Stations Reporting

Nearby Weather Stations

Station Location Temp. Heat Index Dew Point Humidity Wind Precip. Elev Updated Type
Latsia, Latsia 80.7 °F 84 °F - 67% North  at  - - / hr 584 ft 7:44 PM EEST Rapid Fire
Lakatamia, Nicosia 80.8 °F 84 °F 70 °F 69% WSW  at  4.9 mph 0.00 in / hr 758 ft 7:43 PM EEST Rapid Fire
ANTHOUPOLI, Lakatamia 79.4 °F 82 °F 69 °F 71% WNW  at  5.0 mph 0.00 in / hr 854 ft 7:37 PM EEST Normal
MOSFILOTI, Mosfiloti 81.2 °F 85 °F 71 °F 71% North  at  8.1 mph 0.00 in / hr 892 ft 7:44 PM EEST Rapid Fire
Avgorou, Cyprus, Avgorou 84.6 °F 90 °F 71 °F 64% SSE  at  6.0 mph 0.00 in / hr 125 ft 7:40 PM EEST Normal

Show More Stations Show Fewer Stations